sensor_id;sensor_type;location;lat;lon;timestamp;temperature;humidity
11925;DHT22;6022;48.768;18.608;2023-11-21T00:02:21;6.50;99.90
11925;DHT22;6022;48.768;18.608;2023-11-21T00:04:50;6.40;99.90
11925;DHT22;6022;48.768;18.608;2023-11-21T00:07:19;6.70;99.90
11925;DHT22;6022;48.768;18.608;2023-11-21T00:09:58;6.80;99.90
11925;DHT22;6022;48.768;18.608;2023-11-21T00:12:34;6.50;99.90
11925;DHT22;6022;48.768;18.608;2023-11-21T00:15:03;6.40;99.90
11925;DHT22;6022;48.768;18.608;2023-11-21T00:17:40;6.30;99.90
11925;DHT22;6022;48.768;18.608;2023-11-21T00:20:10;6.50;99.90
11925;DHT22;6022;48.768;18.608;2023-11-21T00:22:42;6.20;99.90
11925;DHT22;6022;48.768;18.608;2023-11-21T00:25:13;6.30;99.90
11925;DHT22;6022;48.768;18.608;2023-11-21T00:27:48;6.40;99.90
11925;DHT22;6022;48.768;18.608;2023-11-21T00:30:21;6.30;99.90
11925;DHT22;6022;48.768;18.608;2023-11-21T00:32:51;6.40;99.90
11925;DHT22;6022;48.768;18.608;2023-11-21T00:35:21;6.20;99.90
11925;DHT22;6022;48.768;18.608;2023-11-21T00:37:50;6.20;99.90
11925;DHT22;6022;48.768;18.608;2023-11-21T00:40:18;6.50;99.90
11925;DHT22;6022;48.768;18.608;2023-11-21T00:47:46;6.20;99.90
11925;DHT22;6022;48.768;18.608;2023-11-21T00:50:14;6.10;99.90
11925;DHT22;6022;48.768;18.608;2023-11-21T00:52:43;5.30;99.90
11925;DHT22;6022;48.768;18.608;2023-11-21T00:55:12;6.10;99.90
11925;DHT22;6022;48.768;18.608;2023-11-21T01:00:17;6.40;99.90
11925;DHT22;6022;48.768;18.608;2023-11-21T01:02:46;6.00;99.90
11925;DHT22;6022;48.768;18.608;2023-11-21T01:07:47;6.10;99.90
11925;DHT22;6022;48.768;18.608;2023-11-21T01:10:18;6.00;99.90
11925;DHT22;6022;48.768;18.608;2023-11-21T01:15:21;5.80;99.90
11925;DHT22;6022;48.768;18.608;2023-11-21T01:17:49;6.00;99.90
11925;DHT22;6022;48.768;18.608;2023-11-21T01:20:18;6.30;99.90
11925;DHT22;6022;48.768;18.608;2023-11-21T01:22:47;6.70;99.90
11925;DHT22;6022;48.768;18.608;2023-11-21T01:27:56;6.50;99.90
11925;DHT22;6022;48.768;18.608;2023-11-21T01:37:50;6.40;99.90
11925;DHT22;6022;48.768;18.608;2023-11-21T01:45:17;5.80;99.90
11925;DHT22;6022;48.768;18.608;2023-11-21T01:47:47;5.70;99.90
11925;DHT22;6022;48.768;18.608;2023-11-21T01:50:16;5.80;99.90
11925;DHT22;6022;48.768;18.608;2023-11-21T01:52:48;5.70;99.90
11925;DHT22;6022;48.768;18.608;2023-11-21T01:55:31;5.30;99.90
11925;DHT22;6022;48.768;18.608;2023-11-21T01:58:01;5.50;99.90
11925;DHT22;6022;48.768;18.608;2023-11-21T02:00:30;5.60;99.90
11925;DHT22;6022;48.768;18.608;2023-11-21T02:05:27;5.30;99.90
11925;DHT22;6022;48.768;18.608;2023-11-21T02:07:57;5.00;99.90
11925;DHT22;6022;48.768;18.608;2023-11-21T02:12:55;5.90;99.90
11925;DHT22;6022;48.768;18.608;2023-11-21T02:17:57;5.10;99.90
11925;DHT22;6022;48.768;18.608;2023-11-21T02:22:59;4.80;99.90
11925;DHT22;6022;48.768;18.608;2023-11-21T02:25:30;5.10;99.90
11925;DHT22;6022;48.768;18.608;2023-11-21T02:28:08;5.40;99.90
11925;DHT22;6022;48.768;18.608;2023-11-21T02:33:13;5.40;99.90
11925;DHT22;6022;48.768;18.608;2023-11-21T02:35:49;4.70;99.90
11925;DHT22;6022;48.768;18.608;2023-11-21T02:38:25;5.40;99.90
11925;DHT22;6022;48.768;18.608;2023-11-21T02:40:57;5.20;99.90
11925;DHT22;6022;48.768;18.608;2023-11-21T02:43:27;5.80;99.90
11925;DHT22;6022;48.768;18.608;2023-11-21T02:45:56;4.90;99.90
11925;DHT22;6022;48.768;18.608;2023-11-21T02:48:27;6.90;99.90
11925;DHT22;6022;48.768;18.608;2023-11-21T02:50:58;4.30;99.90
11925;DHT22;6022;48.768;18.608;2023-11-21T02:53:28;5.00;99.90
11925;DHT22;6022;48.768;18.608;2023-11-21T02:56:02;5.20;99.90
11925;DHT22;6022;48.768;18.608;2023-11-21T02:58:32;5.00;99.90
11925;DHT22;6022;48.768;18.608;2023-11-21T03:01:02;5.10;99.90
11925;DHT22;6022;48.768;18.608;2023-11-21T03:06:06;4.90;99.90
11925;DHT22;6022;48.768;18.608;2023-11-21T03:08:36;5.20;99.90
11925;DHT22;6022;48.768;18.608;2023-11-21T03:16:04;6.00;99.90
11925;DHT22;6022;48.768;18.608;2023-11-21T03:21:03;5.20;99.90
11925;DHT22;6022;48.768;18.608;2023-11-21T03:23:37;5.10;99.90
11925;DHT22;6022;48.768;18.608;2023-11-21T03:26:12;4.90;99.90
11925;DHT22;6022;48.768;18.608;2023-11-21T03:28:49;5.10;99.90
11925;DHT22;6022;48.768;18.608;2023-11-21T03:31:18;5.20;99.90
11925;DHT22;6022;48.768;18.608;2023-11-21T03:33:53;5.70;99.90
11925;DHT22;6022;48.768;18.608;2023-11-21T03:36:28;5.10;99.90
11925;DHT22;6022;48.768;18.608;2023-11-21T03:38:59;5.80;99.90
11925;DHT22;6022;48.768;18.608;2023-11-21T03:41:30;5.10;99.90
11925;DHT22;6022;48.768;18.608;2023-11-21T03:44:08;5.40;99.90
11925;DHT22;6022;48.768;18.608;2023-11-21T03:46:42;4.90;99.90
11925;DHT22;6022;48.768;18.608;2023-11-21T03:49:13;5.10;99.90
11925;DHT22;6022;48.768;18.608;2023-11-21T03:51:47;4.90;99.90
11925;DHT22;6022;48.768;18.608;2023-11-21T03:54:16;4.90;99.90
11925;DHT22;6022;48.768;18.608;2023-11-21T03:56:51;4.70;99.90
11925;DHT22;6022;48.768;18.608;2023-11-21T03:59:21;5.10;99.90
11925;DHT22;6022;48.768;18.608;2023-11-21T04:01:54;4.70;99.90
11925;DHT22;6022;48.768;18.608;2023-11-21T04:04:25;4.90;99.90
11925;DHT22;6022;48.768;18.608;2023-11-21T04:06:54;4.40;99.90
11925;DHT22;6022;48.768;18.608;2023-11-21T04:09:25;4.40;99.90
11925;DHT22;6022;48.768;18.608;2023-11-21T04:14:26;4.60;99.90
11925;DHT22;6022;48.768;18.608;2023-11-21T04:19:25;4.20;99.90
11925;DHT22;6022;48.768;18.608;2023-11-21T04:24:26;4.20;99.90
11925;DHT22;6022;48.768;18.608;2023-11-21T04:26:55;3.90;99.90
11925;DHT22;6022;48.768;18.608;2023-11-21T04:29:25;4.30;99.90
11925;DHT22;6022;48.768;18.608;2023-11-21T04:31:56;4.50;99.90
11925;DHT22;6022;48.768;18.608;2023-11-21T04:34:24;4.00;99.90
11925;DHT22;6022;48.768;18.608;2023-11-21T04:36:56;4.70;99.90
11925;DHT22;6022;48.768;18.608;2023-11-21T04:39:26;4.30;99.90
11925;DHT22;6022;48.768;18.608;2023-11-21T04:41:57;4.30;99.90
11925;DHT22;6022;48.768;18.608;2023-11-21T04:44:25;3.60;99.90
11925;DHT22;6022;48.768;18.608;2023-11-21T04:46:54;4.10;99.90
11925;DHT22;6022;48.768;18.608;2023-11-21T04:49:24;4.00;99.90
11925;DHT22;6022;48.768;18.608;2023-11-21T04:51:57;3.90;99.90
11925;DHT22;6022;48.768;18.608;2023-11-21T04:54:27;3.80;99.90
11925;DHT22;6022;48.768;18.608;2023-11-21T04:56:59;3.70;99.90
11925;DHT22;6022;48.768;18.608;2023-11-21T04:59:28;4.00;99.90
11925;DHT22;6022;48.768;18.608;2023-11-21T05:01:57;3.90;99.90
11925;DHT22;6022;48.768;18.608;2023-11-21T05:04:33;4.00;99.90
11925;DHT22;6022;48.768;18.608;2023-11-21T05:07:01;4.00;99.90
11925;DHT22;6022;48.768;18.608;2023-11-21T05:09:35;3.90;99.90
11925;DHT22;6022;48.768;18.608;2023-11-21T05:12:06;3.80;99.90
11925;DHT22;6022;48.768;18.608;2023-11-21T05:14:35;3.80;99.90
11925;DHT22;6022;48.768;18.608;2023-11-21T05:17:04;3.70;99.90
11925;DHT22;6022;48.768;18.608;2023-11-21T05:19:33;4.00;99.90
11925;DHT22;6022;48.768;18.608;2023-11-21T05:22:12;3.90;99.90
11925;DHT22;6022;48.768;18.608;2023-11-21T05:24:42;4.00;99.90
11925;DHT22;6022;48.768;18.608;2023-11-21T05:27:11;3.80;99.90
11925;DHT22;6022;48.768;18.608;2023-11-21T05:29:40;4.00;99.90
11925;DHT22;6022;48.768;18.608;2023-11-21T05:32:13;4.00;99.90
11925;DHT22;6022;48.768;18.608;2023-11-21T05:34:46;4.00;99.90
11925;DHT22;6022;48.768;18.608;2023-11-21T05:37:19;3.40;99.90
11925;DHT22;6022;48.768;18.608;2023-11-21T05:39:48;4.00;99.90
11925;DHT22;6022;48.768;18.608;2023-11-21T05:42:17;3.90;99.90
11925;DHT22;6022;48.768;18.608;2023-11-21T05:44:50;4.00;99.90
11925;DHT22;6022;48.768;18.608;2023-11-21T05:47:20;3.70;99.90
11925;DHT22;6022;48.768;18.608;2023-11-21T05:49:49;3.10;99.90
11925;DHT22;6022;48.768;18.608;2023-11-21T05:52:19;3.80;99.90
11925;DHT22;6022;48.768;18.608;2023-11-21T05:54:57;3.90;99.90
11925;DHT22;6022;48.768;18.608;2023-11-21T05:57:30;4.00;99.90
11925;DHT22;6022;48.768;18.608;2023-11-21T06:00:30;3.70;99.90
11925;DHT22;6022;48.768;18.608;2023-11-21T06:03:07;3.20;99.90
11925;DHT22;6022;48.768;18.608;2023-11-21T06:06:01;4.00;99.90
11925;DHT22;6022;48.768;18.608;2023-11-21T06:08:29;3.90;99.90
11925;DHT22;6022;48.768;18.608;2023-11-21T06:11:06;3.70;99.90
11925;DHT22;6022;48.768;18.608;2023-11-21T06:13:47;3.90;99.90
11925;DHT22;6022;48.768;18.608;2023-11-21T06:16:20;4.00;99.90
11925;DHT22;6022;48.768;18.608;2023-11-21T06:18:49;3.90;99.90
11925;DHT22;6022;48.768;18.608;2023-11-21T06:21:37;3.90;99.90
11925;DHT22;6022;48.768;18.608;2023-11-21T06:24:09;4.10;99.90
11925;DHT22;6022;48.768;18.608;2023-11-21T06:26:38;3.40;99.90
11925;DHT22;6022;48.768;18.608;2023-11-21T06:29:07;3.50;99.90
11925;DHT22;6022;48.768;18.608;2023-11-21T06:31:58;4.10;99.90
11925;DHT22;6022;48.768;18.608;2023-11-21T06:35:05;2.90;99.90
11925;DHT22;6022;48.768;18.608;2023-11-21T06:37:52;4.00;99.90
11925;DHT22;6022;48.768;18.608;2023-11-21T06:40:55;3.80;99.90
11925;DHT22;6022;48.768;18.608;2023-11-21T06:43:33;4.00;99.90
11925;DHT22;6022;48.768;18.608;2023-11-21T06:46:02;3.90;99.90
11925;DHT22;6022;48.768;18.608;2023-11-21T06:51:01;4.30;99.90
11925;DHT22;6022;48.768;18.608;2023-11-21T06:53:30;3.10;99.90
11925;DHT22;6022;48.768;18.608;2023-11-21T06:55:59;3.90;99.90
11925;DHT22;6022;48.768;18.608;2023-11-21T06:58:28;4.20;99.90
11925;DHT22;6022;48.768;18.608;2023-11-21T07:00:57;4.20;99.90
11925;DHT22;6022;48.768;18.608;2023-11-21T07:03:27;4.50;99.90
11925;DHT22;6022;48.768;18.608;2023-11-21T07:05:55;4.00;99.90
11925;DHT22;6022;48.768;18.608;2023-11-21T07:08:23;5.00;99.90
11925;DHT22;6022;48.768;18.608;2023-11-21T07:10:51;4.20;99.90
11925;DHT22;6022;48.768;18.608;2023-11-21T07:16:50;4.80;99.90
11925;DHT22;6022;48.768;18.608;2023-11-21T07:27:25;4.50;99.90
11925;DHT22;6022;48.768;18.608;2023-11-21T07:29:59;4.20;99.90
11925;DHT22;6022;48.768;18.608;2023-11-21T07:40:40;4.80;99.90
11925;DHT22;6022;48.768;18.608;2023-11-21T07:45:43;5.10;99.90
11925;DHT22;6022;48.768;18.608;2023-11-21T07:48:36;4.90;99.90
11925;DHT22;6022;48.768;18.608;2023-11-21T07:51:05;5.00;99.90
11925;DHT22;6022;48.768;18.608;2023-11-21T07:53:52;5.30;99.90
11925;DHT22;6022;48.768;18.608;2023-11-21T07:56:39;5.00;99.90
11925;DHT22;6022;48.768;18.608;2023-11-21T07:59:14;4.80;99.90
11925;DHT22;6022;48.768;18.608;2023-11-21T08:01:46;5.40;99.90
11925;DHT22;6022;48.768;18.608;2023-11-21T08:04:24;5.70;99.90
11925;DHT22;6022;48.768;18.608;2023-11-21T08:06:57;5.90;99.90
11925;DHT22;6022;48.768;18.608;2023-11-21T08:09:35;6.00;99.90
11925;DHT22;6022;48.768;18.608;2023-11-21T08:12:06;6.30;99.90
11925;DHT22;6022;48.768;18.608;2023-11-21T08:14:41;5.90;99.90
11925;DHT22;6022;48.768;18.608;2023-11-21T08:17:10;6.70;99.90
11925;DHT22;6022;48.768;18.608;2023-11-21T08:22:46;6.90;99.90
11925;DHT22;6022;48.768;18.608;2023-11-21T08:25:16;6.20;99.90
11925;DHT22;6022;48.768;18.608;2023-11-21T08:27:48;6.20;99.90
11925;DHT22;6022;48.768;18.608;2023-11-21T08:30:16;6.40;99.90
11925;DHT22;6022;48.768;18.608;2023-11-21T08:32:47;6.90;99.90
11925;DHT22;6022;48.768;18.608;2023-11-21T08:35:15;6.60;99.90
11925;DHT22;6022;48.768;18.608;2023-11-21T08:37:43;6.20;99.90
11925;DHT22;6022;48.768;18.608;2023-11-21T08:40:26;7.10;99.90
11925;DHT22;6022;48.768;18.608;2023-11-21T08:42:54;6.60;99.90
11925;DHT22;6022;48.768;18.608;2023-11-21T08:45:47;6.90;99.90
11925;DHT22;6022;48.768;18.608;2023-11-21T08:48:24;6.60;99.90
11925;DHT22;6022;48.768;18.608;2023-11-21T08:51:16;6.80;99.90
11925;DHT22;6022;48.768;18.608;2023-11-21T08:53:46;7.00;99.90
11925;DHT22;6022;48.768;18.608;2023-11-21T08:56:38;6.30;99.90
11925;DHT22;6022;48.768;18.608;2023-11-21T08:59:22;5.90;99.90
11925;DHT22;6022;48.768;18.608;2023-11-21T09:01:52;6.30;99.90
11925;DHT22;6022;48.768;18.608;2023-11-21T09:04:23;5.80;99.90
11925;DHT22;6022;48.768;18.608;2023-11-21T09:07:00;6.30;99.90
11925;DHT22;6022;48.768;18.608;2023-11-21T09:09:40;6.50;99.90
11925;DHT22;6022;48.768;18.608;2023-11-21T09:12:07;6.10;99.90
11925;DHT22;6022;48.768;18.608;2023-11-21T09:14:54;6.60;99.90
11925;DHT22;6022;48.768;18.608;2023-11-21T09:18:04;6.90;99.90
11925;DHT22;6022;48.768;18.608;2023-11-21T09:20:58;7.00;99.90
11925;DHT22;6022;48.768;18.608;2023-11-21T09:23:27;6.50;99.90
11925;DHT22;6022;48.768;18.608;2023-11-21T09:25:58;6.70;99.90
11925;DHT22;6022;48.768;18.608;2023-11-21T09:28:28;7.60;99.90
11925;DHT22;6022;48.768;18.608;2023-11-21T09:30:57;7.50;99.90
11925;DHT22;6022;48.768;18.608;2023-11-21T09:33:25;7.20;99.90
11925;DHT22;6022;48.768;18.608;2023-11-21T09:36:23;7.30;99.90
11925;DHT22;6022;48.768;18.608;2023-11-21T09:39:24;7.50;99.90
11925;DHT22;6022;48.768;18.608;2023-11-21T09:42:13;7.90;99.90
11925;DHT22;6022;48.768;18.608;2023-11-21T09:49:14;9.10;99.90
11925;DHT22;6022;48.768;18.608;2023-11-21T09:58:23;9.20;99.90
11925;DHT22;6022;48.768;18.608;2023-11-21T10:00:55;9.50;99.90
11925;DHT22;6022;48.768;18.608;2023-11-21T10:03:30;8.70;99.90
11925;DHT22;6022;48.768;18.608;2023-11-21T10:06:02;9.00;99.90
11925;DHT22;6022;48.768;18.608;2023-11-21T10:09:03;9.50;99.90
11925;DHT22;6022;48.768;18.608;2023-11-21T10:11:39;9.50;99.90
11925;DHT22;6022;48.768;18.608;2023-11-21T10:14:11;10.00;99.90
11925;DHT22;6022;48.768;18.608;2023-11-21T10:16:41;10.20;99.90
11925;DHT22;6022;48.768;18.608;2023-11-21T10:19:14;11.10;99.90
11925;DHT22;6022;48.768;18.608;2023-11-21T10:21:45;10.90;99.90
11925;DHT22;6022;48.768;18.608;2023-11-21T10:24:13;10.80;99.90
11925;DHT22;6022;48.768;18.608;2023-11-21T10:26:44;10.70;99.90
11925;DHT22;6022;48.768;18.608;2023-11-21T10:29:21;11.00;99.90
11925;DHT22;6022;48.768;18.608;2023-11-21T10:31:50;11.10;99.90
11925;DHT22;6022;48.768;18.608;2023-11-21T10:34:24;11.40;99.90
11925;DHT22;6022;48.768;18.608;2023-11-21T10:36:54;11.50;99.90
11925;DHT22;6022;48.768;18.608;2023-11-21T10:39:26;11.40;99.90
11925;DHT22;6022;48.768;18.608;2023-11-21T10:42:01;11.30;99.90
11925;DHT22;6022;48.768;18.608;2023-11-21T10:44:34;11.20;99.90
11925;DHT22;6022;48.768;18.608;2023-11-21T10:47:09;11.10;99.90
11925;DHT22;6022;48.768;18.608;2023-11-21T10:50:08;11.50;99.90
11925;DHT22;6022;48.768;18.608;2023-11-21T10:52:42;12.10;99.90
11925;DHT22;6022;48.768;18.608;2023-11-21T10:55:18;12.70;99.90
11925;DHT22;6022;48.768;18.608;2023-11-21T10:57:55;12.20;99.90
11925;DHT22;6022;48.768;18.608;2023-11-21T11:00:36;11.60;99.90
11925;DHT22;6022;48.768;18.608;2023-11-21T11:03:13;12.00;99.90
11925;DHT22;6022;48.768;18.608;2023-11-21T11:05:44;11.80;99.90
11925;DHT22;6022;48.768;18.608;2023-11-21T11:08:22;11.10;99.90
11925;DHT22;6022;48.768;18.608;2023-11-21T11:10:57;11.60;99.90
11925;DHT22;6022;48.768;18.608;2023-11-21T11:13:26;12.70;99.90
11925;DHT22;6022;48.768;18.608;2023-11-21T11:16:01;12.90;99.90
11925;DHT22;6022;48.768;18.608;2023-11-21T11:18:31;12.90;99.90
11925;DHT22;6022;48.768;18.608;2023-11-21T11:21:27;13.20;99.90
11925;DHT22;6022;48.768;18.608;2023-11-21T11:30:47;12.00;99.90
11925;DHT22;6022;48.768;18.608;2023-11-21T11:33:39;12.20;99.90
11925;DHT22;6022;48.768;18.608;2023-11-21T11:36:35;12.80;99.90
11925;DHT22;6022;48.768;18.608;2023-11-21T11:39:32;12.40;99.90
11925;DHT22;6022;48.768;18.608;2023-11-21T11:42:08;12.20;99.90
11925;DHT22;6022;48.768;18.608;2023-11-21T11:47:22;12.80;99.90
11925;DHT22;6022;48.768;18.608;2023-11-21T11:50:05;12.70;99.90
11925;DHT22;6022;48.768;18.608;2023-11-21T11:52:43;13.10;99.90
11925;DHT22;6022;48.768;18.608;2023-11-21T11:55:16;13.70;99.90
11925;DHT22;6022;48.768;18.608;2023-11-21T11:57:51;13.90;99.90
11925;DHT22;6022;48.768;18.608;2023-11-21T12:03:01;14.20;99.90
11925;DHT22;6022;48.768;18.608;2023-11-21T12:05:35;14.40;99.90
11925;DHT22;6022;48.768;18.608;2023-11-21T12:08:07;13.90;99.90
11925;DHT22;6022;48.768;18.608;2023-11-21T12:10:37;13.30;99.90
11925;DHT22;6022;48.768;18.608;2023-11-21T12:13:10;13.10;99.90
11925;DHT22;6022;48.768;18.608;2023-11-21T12:15:40;13.10;99.90
11925;DHT22;6022;48.768;18.608;2023-11-21T12:18:10;13.30;99.90
11925;DHT22;6022;48.768;18.608;2023-11-21T12:20:41;13.50;99.90
11925;DHT22;6022;48.768;18.608;2023-11-21T12:23:10;14.00;99.90
11925;DHT22;6022;48.768;18.608;2023-11-21T12:25:38;13.50;99.90
11925;DHT22;6022;48.768;18.608;2023-11-21T12:28:09;13.40;99.90
11925;DHT22;6022;48.768;18.608;2023-11-21T12:30:37;13.30;99.90
11925;DHT22;6022;48.768;18.608;2023-11-21T12:33:06;13.00;99.90
11925;DHT22;6022;48.768;18.608;2023-11-21T12:35:36;12.60;99.90
11925;DHT22;6022;48.768;18.608;2023-11-21T12:38:05;13.30;99.90
11925;DHT22;6022;48.768;18.608;2023-11-21T12:40:33;13.30;99.90
11925;DHT22;6022;48.768;18.608;2023-11-21T12:43:01;13.30;99.90
11925;DHT22;6022;48.768;18.608;2023-11-21T12:45:32;13.40;99.90
11925;DHT22;6022;48.768;18.608;2023-11-21T12:48:01;13.40;99.90
11925;DHT22;6022;48.768;18.608;2023-11-21T12:50:41;12.60;99.90
11925;DHT22;6022;48.768;18.608;2023-11-21T12:53:13;12.40;99.90
11925;DHT22;6022;48.768;18.608;2023-11-21T12:55:45;13.20;99.90
11925;DHT22;6022;48.768;18.608;2023-11-21T12:58:20;12.90;99.90
11925;DHT22;6022;48.768;18.608;2023-11-21T13:00:57;12.70;99.90
11925;DHT22;6022;48.768;18.608;2023-11-21T13:03:27;12.10;99.90
11925;DHT22;6022;48.768;18.608;2023-11-21T13:05:55;12.90;99.90
11925;DHT22;6022;48.768;18.608;2023-11-21T13:08:33;12.40;99.90
11925;DHT22;6022;48.768;18.608;2023-11-21T13:11:06;12.70;99.90
11925;DHT22;6022;48.768;18.608;2023-11-21T13:13:34;12.10;99.90
11925;DHT22;6022;48.768;18.608;2023-11-21T13:16:03;11.90;99.90
11925;DHT22;6022;48.768;18.608;2023-11-21T13:18:34;12.10;99.90
11925;DHT22;6022;48.768;18.608;2023-11-21T13:21:03;11.60;99.90
11925;DHT22;6022;48.768;18.608;2023-11-21T13:23:40;12.60;99.90
11925;DHT22;6022;48.768;18.608;2023-11-21T13:26:11;11.40;99.90
11925;DHT22;6022;48.768;18.608;2023-11-21T13:28:40;11.40;99.90
11925;DHT22;6022;48.768;18.608;2023-11-21T13:31:13;11.40;99.90
11925;DHT22;6022;48.768;18.608;2023-11-21T13:33:54;11.10;99.90
11925;DHT22;6022;48.768;18.608;2023-11-21T13:36:25;11.30;99.90
11925;DHT22;6022;48.768;18.608;2023-11-21T13:43:06;10.80;99.90
11925;DHT22;6022;48.768;18.608;2023-11-21T13:45:47;10.90;99.90
11925;DHT22;6022;48.768;18.608;2023-11-21T13:48:52;10.80;99.90
11925;DHT22;6022;48.768;18.608;2023-11-21T13:51:24;10.50;99.90
11925;DHT22;6022;48.768;18.608;2023-11-21T13:54:09;11.30;99.90
11925;DHT22;6022;48.768;18.608;2023-11-21T13:56:38;10.70;99.90
11925;DHT22;6022;48.768;18.608;2023-11-21T13:59:09;10.80;99.90
11925;DHT22;6022;48.768;18.608;2023-11-21T14:01:58;10.40;99.90
11925;DHT22;6022;48.768;18.608;2023-11-21T14:04:37;10.50;99.90
11925;DHT22;6022;48.768;18.608;2023-11-21T14:07:19;10.40;99.90
11925;DHT22;6022;48.768;18.608;2023-11-21T14:10:06;10.50;99.90
11925;DHT22;6022;48.768;18.608;2023-11-21T14:12:42;11.30;99.90
11925;DHT22;6022;48.768;18.608;2023-11-21T14:15:10;10.20;99.90
11925;DHT22;6022;48.768;18.608;2023-11-21T14:17:39;10.30;99.90
11925;DHT22;6022;48.768;18.608;2023-11-21T14:20:09;10.90;99.90
11925;DHT22;6022;48.768;18.608;2023-11-21T14:22:44;10.90;99.90
11925;DHT22;6022;48.768;18.608;2023-11-21T14:25:12;10.90;99.90
11925;DHT22;6022;48.768;18.608;2023-11-21T14:27:41;10.80;99.90
11925;DHT22;6022;48.768;18.608;2023-11-21T14:30:11;11.00;99.90
11925;DHT22;6022;48.768;18.608;2023-11-21T14:32:41;10.90;99.90
11925;DHT22;6022;48.768;18.608;2023-11-21T14:35:09;10.80;99.90
11925;DHT22;6022;48.768;18.608;2023-11-21T14:37:38;10.60;99.90
11925;DHT22;6022;48.768;18.608;2023-11-21T14:40:07;10.70;99.90
11925;DHT22;6022;48.768;18.608;2023-11-21T14:42:36;11.00;99.90
11925;DHT22;6022;48.768;18.608;2023-11-21T14:45:06;10.60;99.90
11925;DHT22;6022;48.768;18.608;2023-11-21T14:47:36;10.20;99.90
11925;DHT22;6022;48.768;18.608;2023-11-21T14:50:09;11.00;99.90
11925;DHT22;6022;48.768;18.608;2023-11-21T14:52:56;11.00;99.90
11925;DHT22;6022;48.768;18.608;2023-11-21T14:55:27;10.00;99.90
11925;DHT22;6022;48.768;18.608;2023-11-21T14:57:58;10.30;99.90
11925;DHT22;6022;48.768;18.608;2023-11-21T15:00:30;10.10;99.90
11925;DHT22;6022;48.768;18.608;2023-11-21T15:03:05;9.70;99.90
11925;DHT22;6022;48.768;18.608;2023-11-21T15:05:34;11.00;99.90
11925;DHT22;6022;48.768;18.608;2023-11-21T15:08:03;10.10;99.90
11925;DHT22;6022;48.768;18.608;2023-11-21T15:10:51;10.40;99.90
11925;DHT22;6022;48.768;18.608;2023-11-21T15:13:22;10.10;99.90
11925;DHT22;6022;48.768;18.608;2023-11-21T15:15:51;10.60;99.90
11925;DHT22;6022;48.768;18.608;2023-11-21T15:18:22;10.40;99.90
11925;DHT22;6022;48.768;18.608;2023-11-21T15:20:52;10.30;99.90
11925;DHT22;6022;48.768;18.608;2023-11-21T15:23:20;10.70;99.90
11925;DHT22;6022;48.768;18.608;2023-11-21T15:25:48;10.90;99.90
11925;DHT22;6022;48.768;18.608;2023-11-21T15:28:16;10.10;99.90
11925;DHT22;6022;48.768;18.608;2023-11-21T15:30:46;10.00;99.90
11925;DHT22;6022;48.768;18.608;2023-11-21T15:33:22;9.80;99.90
11925;DHT22;6022;48.768;18.608;2023-11-21T15:35:50;9.90;99.90
11925;DHT22;6022;48.768;18.608;2023-11-21T15:38:18;10.50;99.90
11925;DHT22;6022;48.768;18.608;2023-11-21T15:40:47;10.00;99.90
11925;DHT22;6022;48.768;18.608;2023-11-21T15:43:16;10.10;99.90
11925;DHT22;6022;48.768;18.608;2023-11-21T15:45:44;10.20;99.90
11925;DHT22;6022;48.768;18.608;2023-11-21T15:48:12;9.80;99.90
11925;DHT22;6022;48.768;18.608;2023-11-21T15:50:40;10.10;99.90
11925;DHT22;6022;48.768;18.608;2023-11-21T15:53:09;9.10;99.90
11925;DHT22;6022;48.768;18.608;2023-11-21T15:55:39;9.90;99.90
11925;DHT22;6022;48.768;18.608;2023-11-21T15:58:10;10.00;99.90
11925;DHT22;6022;48.768;18.608;2023-11-21T16:00:38;9.40;99.90
11925;DHT22;6022;48.768;18.608;2023-11-21T16:03:11;8.80;99.90
11925;DHT22;6022;48.768;18.608;2023-11-21T16:05:47;9.40;99.90
11925;DHT22;6022;48.768;18.608;2023-11-21T16:08:26;9.10;99.90
11925;DHT22;6022;48.768;18.608;2023-11-21T16:10:58;9.60;99.90
11925;DHT22;6022;48.768;18.608;2023-11-21T16:13:27;9.50;99.90
11925;DHT22;6022;48.768;18.608;2023-11-21T16:15:55;8.90;99.90
11925;DHT22;6022;48.768;18.608;2023-11-21T16:18:27;9.10;99.90
11925;DHT22;6022;48.768;18.608;2023-11-21T16:21:01;9.50;99.90
11925;DHT22;6022;48.768;18.608;2023-11-21T16:23:29;9.20;99.90
11925;DHT22;6022;48.768;18.608;2023-11-21T16:25:59;9.00;99.90
11925;DHT22;6022;48.768;18.608;2023-11-21T16:28:30;8.50;99.90
11925;DHT22;6022;48.768;18.608;2023-11-21T16:31:01;9.70;99.90
11925;DHT22;6022;48.768;18.608;2023-11-21T16:33:30;9.60;99.90
11925;DHT22;6022;48.768;18.608;2023-11-21T16:35:58;9.60;99.90
11925;DHT22;6022;48.768;18.608;2023-11-21T16:38:27;9.50;99.90
11925;DHT22;6022;48.768;18.608;2023-11-21T16:40:57;8.40;99.90
11925;DHT22;6022;48.768;18.608;2023-11-21T16:43:30;9.50;99.90
11925;DHT22;6022;48.768;18.608;2023-11-21T16:46:01;9.70;99.90
11925;DHT22;6022;48.768;18.608;2023-11-21T16:48:31;8.70;99.90
11925;DHT22;6022;48.768;18.608;2023-11-21T16:51:17;8.50;99.90
11925;DHT22;6022;48.768;18.608;2023-11-21T16:53:48;9.40;99.90
11925;DHT22;6022;48.768;18.608;2023-11-21T16:56:29;8.50;99.90
11925;DHT22;6022;48.768;18.608;2023-11-21T17:12:27;9.00;99.90
11925;DHT22;6022;48.768;18.608;2023-11-21T17:16:36;8.90;99.90
11925;DHT22;6022;48.768;18.608;2023-11-21T17:20:31;9.20;99.90
11925;DHT22;6022;48.768;18.608;2023-11-21T17:24:03;9.00;99.90
11925;DHT22;6022;48.768;18.608;2023-11-21T17:35:30;9.10;99.90
11925;DHT22;6022;48.768;18.608;2023-11-21T17:38:44;8.70;99.90
11925;DHT22;6022;48.768;18.608;2023-11-21T17:46:52;9.00;99.90
11925;DHT22;6022;48.768;18.608;2023-11-21T17:50:28;8.80;99.90
11925;DHT22;6022;48.768;18.608;2023-11-21T18:02:28;8.00;99.90
11925;DHT22;6022;48.768;18.608;2023-11-21T18:14:06;8.80;99.90
11925;DHT22;6022;48.768;18.608;2023-11-21T18:52:38;7.80;99.90
11925;DHT22;6022;48.768;18.608;2023-11-21T19:04:30;8.10;99.90
11925;DHT22;6022;48.768;18.608;2023-11-21T19:16:18;5.60;99.90
11925;DHT22;6022;48.768;18.608;2023-11-21T19:45:01;7.70;99.90
11925;DHT22;6022;48.768;18.608;2023-11-21T21:23:51;7.00;99.90
11925;DHT22;6022;48.768;18.608;2023-11-21T21:26:20;6.70;99.90
11925;DHT22;6022;48.768;18.608;2023-11-21T21:28:55;6.40;99.90
11925;DHT22;6022;48.768;18.608;2023-11-21T21:31:59;6.90;99.90
11925;DHT22;6022;48.768;18.608;2023-11-21T21:34:28;7.10;99.90
11925;DHT22;6022;48.768;18.608;2023-11-21T21:39:29;7.70;99.90
11925;DHT22;6022;48.768;18.608;2023-11-21T21:41:57;7.80;99.90
11925;DHT22;6022;48.768;18.608;2023-11-21T21:44:37;7.00;99.90
11925;DHT22;6022;48.768;18.608;2023-11-21T21:47:10;7.00;99.90
11925;DHT22;6022;48.768;18.608;2023-11-21T21:49:38;7.60;99.90
11925;DHT22;6022;48.768;18.608;2023-11-21T21:52:06;7.50;99.90
11925;DHT22;6022;48.768;18.608;2023-11-21T21:54:36;7.50;99.90
11925;DHT22;6022;48.768;18.608;2023-11-21T21:57:06;7.30;99.90
11925;DHT22;6022;48.768;18.608;2023-11-21T21:59:45;7.60;99.90
11925;DHT22;6022;48.768;18.608;2023-11-21T22:04:57;7.80;99.90
11925;DHT22;6022;48.768;18.608;2023-11-21T22:07:25;6.50;99.90